createdAt,value
2022-07-28T00:00:29.971Z,1016.45
2022-07-28T00:01:29.978Z,1016.43
2022-07-28T00:02:30.157Z,1016.45
2022-07-28T00:03:29.942Z,1016.46
2022-07-28T00:04:29.853Z,1016.43
2022-07-28T00:05:29.812Z,1016.43
2022-07-28T00:06:29.792Z,1016.42
2022-07-28T00:07:29.820Z,1016.43
2022-07-28T00:08:29.781Z,1016.43
2022-07-28T00:09:29.747Z,1016.46
2022-07-28T00:10:29.686Z,1016.45
2022-07-28T00:11:29.640Z,1016.49
2022-07-28T00:12:29.577Z,1016.50
2022-07-28T00:13:29.615Z,1016.49
2022-07-28T00:14:29.548Z,1016.50
2022-07-28T00:15:29.520Z,1016.50
2022-07-28T00:16:29.491Z,1016.50
2022-07-28T00:17:29.417Z,1016.48
2022-07-28T00:18:29.802Z,1016.47
2022-07-28T00:19:29.347Z,1016.49
2022-07-28T00:20:29.322Z,1016.48
2022-07-28T00:21:29.302Z,1016.46
2022-07-28T00:22:29.264Z,1016.45
2022-07-28T00:23:39.221Z,1016.45
2022-07-28T00:24:29.218Z,1016.46
2022-07-28T00:25:29.153Z,1016.44
2022-07-28T00:26:29.210Z,1016.44
2022-07-28T00:27:29.122Z,1016.44
2022-07-28T00:28:29.112Z,1016.43
2022-07-28T00:29:50.496Z,1016.42
2022-07-28T00:30:29.002Z,1016.45
2022-07-28T00:31:29.699Z,1016.44
2022-07-28T00:32:29.610Z,1016.45
2022-07-28T00:33:29.001Z,1016.45
2022-07-28T00:34:28.877Z,1016.44
2022-07-28T00:35:30.822Z,1016.43
2022-07-28T00:36:28.806Z,1016.45
2022-07-28T00:37:28.813Z,1016.47
2022-07-28T00:38:28.889Z,1016.47
2022-07-28T00:39:28.769Z,1016.46
2022-07-28T00:40:28.685Z,1016.44
2022-07-28T00:41:28.635Z,1016.51
2022-07-28T00:42:28.598Z,1016.49
2022-07-28T00:43:28.592Z,1016.48
2022-07-28T00:44:28.615Z,1016.48
2022-07-28T00:45:28.568Z,1016.48
2022-07-28T00:46:28.543Z,1016.47
2022-07-28T00:47:33.928Z,1016.50
2022-07-28T00:48:28.421Z,1016.51
2022-07-28T00:49:28.376Z,1016.49
2022-07-28T00:50:28.388Z,1016.50
2022-07-28T00:51:28.314Z,1016.51
2022-07-28T00:52:28.305Z,1016.48
2022-07-28T00:53:28.238Z,1016.49
2022-07-28T00:54:28.214Z,1016.48
2022-07-28T00:55:28.247Z,1016.48
2022-07-28T00:56:28.183Z,1016.50
2022-07-28T00:57:28.135Z,1016.52
2022-07-28T00:58:28.077Z,1016.51
2022-07-28T00:59:28.060Z,1016.50
2022-07-28T01:00:28.076Z,1016.49
2022-07-28T01:01:28.071Z,1016.50
2022-07-28T01:02:28.143Z,1016.51
2022-07-28T01:03:27.936Z,1016.53
2022-07-28T01:04:27.879Z,1016.55
2022-07-28T01:05:43.562Z,1016.55
2022-07-28T01:06:27.962Z,1016.57
2022-07-28T01:07:27.811Z,1016.54
2022-07-28T01:08:27.764Z,1016.58
2022-07-28T01:09:27.729Z,1016.57
2022-07-28T01:10:27.692Z,1016.56
2022-07-28T01:11:27.722Z,1016.61
2022-07-28T01:12:27.684Z,1016.56
2022-07-28T01:13:30.060Z,1016.59
2022-07-28T01:14:27.552Z,1016.60
2022-07-28T01:15:27.526Z,1016.58
2022-07-28T01:16:27.761Z,1016.61
2022-07-28T01:17:27.477Z,1016.53
2022-07-28T01:18:27.420Z,1016.61
2022-07-28T01:19:27.385Z,1016.60
2022-07-28T01:20:27.353Z,1016.57
2022-07-28T01:21:27.350Z,1016.56
2022-07-28T01:22:28.232Z,1016.56
2022-07-28T01:23:27.259Z,1016.58
2022-07-28T01:24:27.318Z,1016.59
2022-07-28T01:25:27.212Z,1016.59
2022-07-28T01:26:27.153Z,1016.60
2022-07-28T01:27:27.357Z,1016.59
2022-07-28T01:28:27.194Z,1016.61
2022-07-28T01:29:27.151Z,1016.59
2022-07-28T01:30:27.762Z,1016.61
2022-07-28T01:31:27.055Z,1016.61
2022-07-28T01:32:26.968Z,1016.64
2022-07-28T01:33:27.005Z,1016.65
2022-07-28T01:34:26.906Z,1016.64
2022-07-28T01:35:26.863Z,1016.63
2022-07-28T01:36:26.837Z,1016.61
2022-07-28T01:37:26.902Z,1016.58
2022-07-28T01:38:26.771Z,1016.61
2022-07-28T01:39:26.788Z,1016.63
2022-07-28T01:40:26.700Z,1016.66
2022-07-28T01:41:26.684Z,1016.66
2022-07-28T01:42:26.717Z,1016.64
2022-07-28T01:43:26.716Z,1016.65
2022-07-28T01:44:26.567Z,1016.68
2022-07-28T01:45:26.530Z,1016.68
2022-07-28T01:46:26.540Z,1016.67
2022-07-28T01:47:26.550Z,1016.62
2022-07-28T01:48:26.499Z,1016.62
2022-07-28T01:49:26.556Z,1016.62
2022-07-28T01:50:26.382Z,1016.58
2022-07-28T01:51:26.346Z,1016.56
2022-07-28T01:52:29.236Z,1016.57
2022-07-28T01:53:26.327Z,1016.55
2022-07-28T01:54:26.320Z,1016.53
2022-07-28T01:55:26.202Z,1016.51
2022-07-28T01:56:33.130Z,1016.51
2022-07-28T01:57:26.160Z,1016.54
2022-07-28T01:58:26.137Z,1016.49
2022-07-28T01:59:26.188Z,1016.47
2022-07-28T02:00:26.115Z,1016.46
2022-07-28T02:01:26.059Z,1016.51
2022-07-28T02:02:25.973Z,1016.47
2022-07-28T02:03:25.942Z,1016.48
2022-07-28T02:04:25.905Z,1016.45
2022-07-28T02:05:25.966Z,1016.45
2022-07-28T02:06:25.899Z,1016.43
2022-07-28T02:07:25.804Z,1016.47
2022-07-28T02:08:25.774Z,1016.42
2022-07-28T02:09:26.634Z,1016.44
2022-07-28T02:10:25.718Z,1016.46
2022-07-28T02:11:25.737Z,1016.46
2022-07-28T02:12:25.650Z,1016.48
2022-07-28T02:13:26.130Z,1016.49
2022-07-28T02:14:25.583Z,1016.47
2022-07-28T02:15:25.602Z,1016.46
2022-07-28T02:16:25.592Z,1016.45
2022-07-28T02:17:25.468Z,1016.44
2022-07-28T02:18:25.451Z,1016.45
2022-07-28T02:19:25.439Z,1016.41
2022-07-28T02:20:25.456Z,1016.45
2022-07-28T02:21:25.361Z,1016.43
2022-07-28T02:22:25.324Z,1016.46
2022-07-28T02:23:25.319Z,1016.41
2022-07-28T02:24:25.304Z,1016.45
2022-07-28T02:25:25.345Z,1016.45
2022-07-28T02:26:25.233Z,1016.45
2022-07-28T02:27:25.203Z,1016.47
2022-07-28T02:28:25.127Z,1016.50
2022-07-28T02:29:49.020Z,1016.44
2022-07-28T02:30:25.053Z,1016.42
2022-07-28T02:31:25.253Z,1016.50
2022-07-28T02:32:27.699Z,1016.48
2022-07-28T02:33:58.157Z,1016.46
2022-07-28T02:34:27.845Z,1016.46
2022-07-28T02:35:24.880Z,1016.48
2022-07-28T02:36:24.907Z,1016.52
2022-07-28T02:37:24.807Z,1016.50
2022-07-28T02:38:24.779Z,1016.49
2022-07-28T02:39:24.746Z,1016.54
2022-07-28T02:40:24.722Z,1016.54
2022-07-28T02:41:24.805Z,1016.50
2022-07-28T02:42:24.646Z,1016.51
2022-07-28T02:43:24.633Z,1016.49
2022-07-28T02:44:24.587Z,1016.50
2022-07-28T02:45:24.563Z,1016.51
2022-07-28T02:46:24.658Z,1016.48
2022-07-28T02:47:24.530Z,1016.50
2022-07-28T02:48:24.450Z,1016.53
2022-07-28T02:49:24.475Z,1016.55
2022-07-28T02:50:24.386Z,1016.54
2022-07-28T02:51:24.358Z,1016.59
2022-07-28T02:52:24.383Z,1016.58
2022-07-28T02:53:24.359Z,1016.62
2022-07-28T02:54:24.253Z,1016.65
2022-07-28T02:55:24.218Z,1016.63
2022-07-28T02:56:24.176Z,1016.66
2022-07-28T02:57:24.154Z,1016.63
2022-07-28T02:58:24.188Z,1016.66
2022-07-28T02:59:24.096Z,1016.68
2022-07-28T03:00:24.052Z,1016.71
2022-07-28T03:01:24.052Z,1016.66
2022-07-28T03:02:23.986Z,1016.69
2022-07-28T03:03:24.019Z,1016.72
2022-07-28T03:04:23.914Z,1016.72
2022-07-28T03:05:23.940Z,1016.66
2022-07-28T03:06:28.393Z,1016.69
2022-07-28T03:07:23.817Z,1016.69
2022-07-28T03:08:23.859Z,1016.69
2022-07-28T03:09:23.751Z,1016.70
2022-07-28T03:10:33.350Z,1016.75
2022-07-28T03:11:23.714Z,1016.76
2022-07-28T03:12:23.658Z,1016.76
2022-07-28T03:13:23.625Z,1016.72
2022-07-28T03:14:23.652Z,1016.72
2022-07-28T03:15:23.745Z,1016.75
2022-07-28T03:16:23.571Z,1016.77
2022-07-28T03:17:23.504Z,1016.74
2022-07-28T03:18:23.476Z,1016.77
2022-07-28T03:19:23.469Z,1016.74
2022-07-28T03:20:23.397Z,1016.78
2022-07-28T03:21:23.357Z,1016.77
2022-07-28T03:22:23.315Z,1016.78
2022-07-28T03:23:23.289Z,1016.80
2022-07-28T03:24:23.320Z,1016.78
2022-07-28T03:25:23.216Z,1016.82
2022-07-28T03:26:23.196Z,1016.82
2022-07-28T03:27:23.165Z,1016.80
2022-07-28T03:28:23.134Z,1016.83
2022-07-28T03:29:23.203Z,1016.82
2022-07-28T03:30:23.091Z,1016.84
2022-07-28T03:31:23.135Z,1016.86
2022-07-28T03:32:22.979Z,1016.91
2022-07-28T03:33:23.031Z,1016.92
2022-07-28T03:34:22.915Z,1016.94
2022-07-28T03:35:22.951Z,1016.96
2022-07-28T03:36:22.916Z,1016.93
2022-07-28T03:37:22.829Z,1016.95
2022-07-28T03:38:22.781Z,1016.94
2022-07-28T03:39:22.751Z,1016.98
2022-07-28T03:40:22.784Z,1016.99
2022-07-28T03:41:22.677Z,1016.98
2022-07-28T03:42:22.650Z,1016.95
2022-07-28T03:43:22.618Z,1016.97
2022-07-28T03:44:26.954Z,1016.95
2022-07-28T03:45:22.637Z,1016.96
2022-07-28T03:46:22.561Z,1016.97
2022-07-28T03:47:22.491Z,1017.01
2022-07-28T03:48:22.456Z,1017.01
2022-07-28T03:49:22.478Z,1017.03
2022-07-28T03:50:22.383Z,1017.01
2022-07-28T03:51:22.418Z,1017.03
2022-07-28T03:52:22.314Z,1017.03
2022-07-28T03:53:22.293Z,1017.04
2022-07-28T03:54:22.250Z,1017.07
2022-07-28T03:55:22.231Z,1017.07
2022-07-28T03:56:22.246Z,1017.13
2022-07-28T03:57:22.174Z,1017.11
2022-07-28T03:58:22.122Z,1017.10
2022-07-28T03:59:22.103Z,1017.11
2022-07-28T04:00:22.050Z,1017.06
2022-07-28T04:01:22.104Z,1017.09
2022-07-28T04:02:22.074Z,1017.11
2022-07-28T04:03:35.745Z,1017.15
2022-07-28T04:04:21.915Z,1017.15
2022-07-28T04:05:21.880Z,1017.16
2022-07-28T04:06:21.913Z,1017.15
2022-07-28T04:07:21.869Z,1017.19
2022-07-28T04:08:21.789Z,1017.20
2022-07-28T04:09:21.753Z,1017.20
2022-07-28T04:10:21.732Z,1017.18
2022-07-28T04:11:21.740Z,1017.17
2022-07-28T04:12:21.708Z,1017.15
2022-07-28T04:13:21.614Z,1017.15
2022-07-28T04:14:22.079Z,1017.16
2022-07-28T04:15:21.561Z,1017.16
2022-07-28T04:16:22.337Z,1017.16
2022-07-28T04:17:21.589Z,1017.18
2022-07-28T04:18:21.455Z,1017.18
2022-07-28T04:19:21.415Z,1017.18
2022-07-28T04:20:21.392Z,1017.19
2022-07-28T04:21:21.363Z,1017.19
2022-07-28T04:22:21.317Z,1017.14
2022-07-28T04:23:21.355Z,1017.16
2022-07-28T04:24:21.324Z,1017.14
2022-07-28T04:25:21.259Z,1017.16
2022-07-28T04:26:21.191Z,1017.19
2022-07-28T04:27:21.179Z,1017.19
2022-07-28T04:28:21.189Z,1017.22
2022-07-28T04:29:27.121Z,1017.20
2022-07-28T04:30:21.078Z,1017.20
2022-07-28T04:31:21.117Z,1017.20
2022-07-28T04:32:20.999Z,1017.25
2022-07-28T04:33:21.032Z,1017.26
2022-07-28T04:34:20.998Z,1017.27
2022-07-28T04:35:20.896Z,1017.25
2022-07-28T04:36:20.899Z,1017.23
2022-07-28T04:37:20.839Z,1017.24
2022-07-28T04:38:20.852Z,1017.24
2022-07-28T04:39:20.842Z,1017.25
2022-07-28T04:40:20.741Z,1017.26
2022-07-28T04:41:20.701Z,1017.24
2022-07-28T04:42:20.676Z,1017.29
2022-07-28T04:43:22.925Z,1017.26
2022-07-28T04:44:20.606Z,1017.27
2022-07-28T04:45:20.638Z,1017.30
2022-07-28T04:46:20.611Z,1017.31
2022-07-28T04:47:20.518Z,1017.31
2022-07-28T04:48:20.476Z,1017.31
2022-07-28T04:49:20.497Z,1017.26
2022-07-28T04:50:20.474Z,1017.30
2022-07-28T04:51:20.441Z,1017.31
2022-07-28T04:52:20.351Z,1017.33
2022-07-28T04:53:20.422Z,1017.30
2022-07-28T04:54:26.084Z,1017.32
2022-07-28T04:55:20.252Z,1017.28
2022-07-28T04:56:20.289Z,1017.34
2022-07-28T04:57:20.220Z,1017.32
2022-07-28T04:58:20.162Z,1017.35
2022-07-28T04:59:20.137Z,1017.36
2022-07-28T05:00:20.092Z,1017.32
2022-07-28T05:01:20.192Z,1017.33
2022-07-28T05:02:20.032Z,1017.38
2022-07-28T05:03:20.004Z,1017.39
2022-07-28T05:04:20.068Z,1017.34
2022-07-28T05:05:19.930Z,1017.34
2022-07-28T05:06:19.971Z,1017.34
2022-07-28T05:07:19.930Z,1017.33
2022-07-28T05:08:19.839Z,1017.33
2022-07-28T05:09:19.820Z,1017.32
2022-07-28T05:10:19.773Z,1017.35
2022-07-28T05:11:19.748Z,1017.33
2022-07-28T05:12:19.760Z,1017.35
2022-07-28T05:13:19.683Z,1017.34
2022-07-28T05:14:19.657Z,1017.35
2022-07-28T05:15:19.620Z,1017.32
2022-07-28T05:16:19.637Z,1017.34
2022-07-28T05:17:19.620Z,1017.34
2022-07-28T05:18:19.534Z,1017.32
2022-07-28T05:19:19.493Z,1017.30
2022-07-28T05:20:19.458Z,1017.33
2022-07-28T05:21:22.410Z,1017.32
2022-07-28T05:22:19.584Z,1017.32
2022-07-28T05:23:19.371Z,1017.38
2022-07-28T05:24:19.336Z,1017.38
2022-07-28T05:25:19.339Z,1017.39
2022-07-28T05:26:19.268Z,1017.40
2022-07-28T05:27:19.271Z,1017.39
2022-07-28T05:28:19.439Z,1017.42
2022-07-28T05:29:19.203Z,1017.41
2022-07-28T05:30:19.166Z,1017.41
2022-07-28T05:31:19.220Z,1017.44
2022-07-28T05:32:19.115Z,1017.43
2022-07-28T05:33:19.403Z,1017.45
2022-07-28T05:34:19.035Z,1017.46
2022-07-28T05:35:19.787Z,1017.48
2022-07-28T05:36:19.156Z,1017.47
2022-07-28T05:37:18.962Z,1017.50
2022-07-28T05:38:18.955Z,1017.52
2022-07-28T05:39:18.977Z,1017.51
2022-07-28T05:40:18.835Z,1017.49
2022-07-28T05:41:18.816Z,1017.51
2022-07-28T05:42:18.781Z,1017.49
2022-07-28T05:43:18.768Z,1017.51
2022-07-28T05:44:18.720Z,1017.54
2022-07-28T05:45:18.739Z,1017.53
2022-07-28T05:46:18.707Z,1017.56
2022-07-28T05:47:18.619Z,1017.52
2022-07-28T05:48:18.591Z,1017.58
2022-07-28T05:49:21.706Z,1017.58
2022-07-28T05:50:18.601Z,1017.58
2022-07-28T05:51:18.500Z,1017.56
2022-07-28T05:52:18.465Z,1017.60
2022-07-28T05:53:18.453Z,1017.61
2022-07-28T05:54:18.408Z,1017.62
2022-07-28T05:55:18.451Z,1017.66
2022-07-28T05:56:18.349Z,1017.69
2022-07-28T05:57:18.323Z,1017.66
2022-07-28T05:58:18.291Z,1017.69
2022-07-28T05:59:18.260Z,1017.70
2022-07-28T06:00:18.224Z,1017.69
2022-07-28T06:01:18.300Z,1017.74
2022-07-28T06:02:18.258Z,1017.74
2022-07-28T06:03:18.131Z,1017.74
2022-07-28T06:04:26.597Z,1017.77
2022-07-28T06:05:18.074Z,1017.74
2022-07-28T06:06:18.042Z,1017.75
2022-07-28T06:07:18.085Z,1017.77
2022-07-28T06:08:17.980Z,1017.75
2022-07-28T06:09:17.985Z,1017.75
2022-07-28T06:10:17.943Z,1017.73
2022-07-28T06:11:22.784Z,1017.73
2022-07-28T06:12:17.907Z,1017.78
2022-07-28T06:13:17.889Z,1017.71
2022-07-28T06:14:18.328Z,1017.71
2022-07-28T06:15:17.777Z,1017.72
2022-07-28T06:16:17.836Z,1017.72
2022-07-28T06:17:17.711Z,1017.76
2022-07-28T06:18:17.877Z,1017.68
2022-07-28T06:19:17.662Z,1017.68
2022-07-28T06:20:17.686Z,1017.69
2022-07-28T06:21:17.590Z,1017.72
2022-07-28T06:22:17.562Z,1017.76
2022-07-28T06:23:17.548Z,1017.77
2022-07-28T06:24:18.014Z,1017.77
2022-07-28T06:25:17.475Z,1017.77
2022-07-28T06:26:17.440Z,1017.75
2022-07-28T06:27:17.410Z,1017.78
2022-07-28T06:28:17.379Z,1017.78
2022-07-28T06:29:17.352Z,1017.75
2022-07-28T06:30:17.384Z,1017.73
2022-07-28T06:31:17.362Z,1017.79
2022-07-28T06:32:17.291Z,1017.76
2022-07-28T06:33:17.514Z,1017.75
2022-07-28T06:34:17.492Z,1017.78
2022-07-28T06:35:17.225Z,1017.77
2022-07-28T06:36:17.145Z,1017.76
2022-07-28T06:37:17.116Z,1017.80
2022-07-28T06:38:17.088Z,1017.80
2022-07-28T06:39:17.054Z,1017.79
2022-07-28T06:40:17.095Z,1017.82
2022-07-28T06:41:16.990Z,1017.78
2022-07-28T06:42:16.968Z,1017.82
2022-07-28T06:43:16.964Z,1017.82
2022-07-28T06:44:17.257Z,1017.78
2022-07-28T06:45:19.553Z,1017.77
2022-07-28T06:46:17.149Z,1017.75
2022-07-28T06:47:16.904Z,1017.74
2022-07-28T06:48:16.794Z,1017.74
2022-07-28T06:49:17.211Z,1017.74
2022-07-28T06:50:25.932Z,1017.79
2022-07-28T06:51:16.700Z,1017.77
2022-07-28T06:52:16.748Z,1017.80
2022-07-28T06:53:16.644Z,1017.79
2022-07-28T06:54:16.901Z,1017.79
2022-07-28T06:55:16.593Z,1017.79
2022-07-28T06:56:16.870Z,1017.77
2022-07-28T06:57:16.862Z,1017.78
2022-07-28T06:58:16.622Z,1017.82
2022-07-28T06:59:16.875Z,1017.79
2022-07-28T07:00:16.447Z,1017.79
2022-07-28T07:01:16.450Z,1017.78
2022-07-28T07:02:16.389Z,1017.75
2022-07-28T07:03:16.434Z,1017.77
2022-07-28T07:04:16.773Z,1017.76
2022-07-28T07:05:16.303Z,1017.73
2022-07-28T07:06:16.274Z,1017.75
2022-07-28T07:07:17.298Z,1017.68
2022-07-28T07:08:16.218Z,1017.71
2022-07-28T07:09:16.240Z,1017.75
2022-07-28T07:10:16.160Z,1017.71
2022-07-28T07:11:16.146Z,1017.68
2022-07-28T07:12:16.098Z,1017.70
2022-07-28T07:13:16.221Z,1017.73
2022-07-28T07:14:16.406Z,1017.73
2022-07-28T07:15:16.014Z,1017.74
2022-07-28T07:16:16.075Z,1017.72
2022-07-28T07:17:15.985Z,1017.72
2022-07-28T07:18:16.378Z,1017.71
2022-07-28T07:19:16.166Z,1017.66
2022-07-28T07:20:17.213Z,1017.70
2022-07-28T07:21:15.850Z,1017.63
2022-07-28T07:22:15.815Z,1017.67
2022-07-28T07:23:15.789Z,1017.64
2022-07-28T07:24:16.090Z,1017.70
2022-07-28T07:25:15.737Z,1017.69
2022-07-28T07:26:16.317Z,1017.69
2022-07-28T07:27:15.715Z,1017.70
2022-07-28T07:28:15.661Z,1017.69
2022-07-28T07:29:15.720Z,1017.68
2022-07-28T07:30:15.600Z,1017.65
2022-07-28T07:31:15.623Z,1017.70
2022-07-28T07:32:15.536Z,1017.66
2022-07-28T07:33:15.513Z,1017.68
2022-07-28T07:34:15.678Z,1017.72
2022-07-28T07:35:15.513Z,1017.75
2022-07-28T07:36:15.479Z,1017.79
2022-07-28T07:37:15.408Z,1017.76
2022-07-28T07:38:15.379Z,1017.73
2022-07-28T07:39:15.351Z,1017.75
2022-07-28T07:40:15.401Z,1017.73
2022-07-28T07:41:15.299Z,1017.72
2022-07-28T07:42:15.275Z,1017.73
2022-07-28T07:43:15.247Z,1017.72
2022-07-28T07:44:15.557Z,1017.71
2022-07-28T07:45:15.190Z,1017.74
2022-07-28T07:46:15.284Z,1017.70
2022-07-28T07:47:15.153Z,1017.71
2022-07-28T07:48:15.110Z,1017.72
2022-07-28T07:49:15.227Z,1017.71
2022-07-28T07:50:15.060Z,1017.76
2022-07-28T07:51:15.765Z,1017.75
2022-07-28T07:52:15.063Z,1017.79
2022-07-28T07:53:14.980Z,1017.79
2022-07-28T07:54:15.252Z,1017.75
2022-07-28T07:55:14.927Z,1017.77
2022-07-28T07:56:14.975Z,1017.80
2022-07-28T07:57:14.885Z,1017.79
2022-07-28T07:58:14.848Z,1017.79
2022-07-28T07:59:14.827Z,1017.77
2022-07-28T08:00:29.313Z,1017.74
2022-07-28T08:01:21.776Z,1017.75
2022-07-28T08:02:14.824Z,1017.75
2022-07-28T08:03:14.720Z,1017.71
2022-07-28T08:04:15.254Z,1017.75
2022-07-28T08:05:14.674Z,1017.73
2022-07-28T08:06:14.645Z,1017.73
2022-07-28T08:07:14.686Z,1017.73
2022-07-28T08:08:14.594Z,1017.70
2022-07-28T08:09:14.566Z,1017.72
2022-07-28T08:10:14.543Z,1017.76
2022-07-28T08:11:14.514Z,1017.72
2022-07-28T08:12:14.485Z,1017.72
2022-07-28T08:13:14.669Z,1017.72
2022-07-28T08:14:14.796Z,1017.73
2022-07-28T08:15:14.412Z,1017.75
2022-07-28T08:16:14.427Z,1017.74
2022-07-28T08:17:14.361Z,1017.70
2022-07-28T08:18:14.332Z,1017.71
2022-07-28T08:19:14.385Z,1017.71
2022-07-28T08:20:14.290Z,1017.71
2022-07-28T08:21:14.261Z,1017.71
2022-07-28T08:22:14.233Z,1017.73
2022-07-28T08:23:14.205Z,1017.70
2022-07-28T08:24:27.608Z,1017.71
2022-07-28T08:25:14.153Z,1017.71
2022-07-28T08:26:14.129Z,1017.74
2022-07-28T08:27:14.100Z,1017.75
2022-07-28T08:28:14.080Z,1017.74
2022-07-28T08:29:14.110Z,1017.72
2022-07-28T08:30:14.026Z,1017.74
2022-07-28T08:31:14.081Z,1017.74
2022-07-28T08:32:13.984Z,1017.79
2022-07-28T08:33:13.952Z,1017.78
2022-07-28T08:34:26.358Z,1017.78
2022-07-28T08:35:32.417Z,1017.77
2022-07-28T08:36:13.922Z,1017.74
2022-07-28T08:37:13.893Z,1017.75
2022-07-28T08:38:13.847Z,1017.73
2022-07-28T08:39:13.854Z,1017.74
2022-07-28T08:40:13.832Z,1017.75
2022-07-28T08:41:13.751Z,1017.76
2022-07-28T08:42:13.742Z,1017.75
2022-07-28T08:43:13.701Z,1017.78
2022-07-28T08:44:13.939Z,1017.74
2022-07-28T08:45:13.703Z,1017.76
2022-07-28T08:46:13.675Z,1017.77
2022-07-28T08:47:13.599Z,1017.75
2022-07-28T08:48:13.609Z,1017.75
2022-07-28T08:49:14.900Z,1017.77
2022-07-28T08:50:13.727Z,1017.77
2022-07-28T08:51:13.502Z,1017.75
2022-07-28T08:52:13.479Z,1017.77
2022-07-28T08:53:13.495Z,1017.78
2022-07-28T08:54:13.680Z,1017.74
2022-07-28T08:55:19.141Z,1017.72
2022-07-28T08:56:13.434Z,1017.78
2022-07-28T08:57:13.363Z,1017.74
2022-07-28T08:58:13.332Z,1017.75
2022-07-28T08:59:13.331Z,1017.80
2022-07-28T09:00:13.284Z,1017.79
2022-07-28T09:01:13.927Z,1017.77
2022-07-28T09:02:13.353Z,1017.77
2022-07-28T09:03:13.319Z,1017.78
2022-07-28T09:04:13.470Z,1017.78
2022-07-28T09:05:13.198Z,1017.75
2022-07-28T09:06:13.160Z,1017.78
2022-07-28T09:07:13.230Z,1017.78
2022-07-28T09:08:13.156Z,1017.81
2022-07-28T09:09:13.103Z,1017.79
2022-07-28T09:10:13.095Z,1017.79
2022-07-28T09:11:13.022Z,1017.76
2022-07-28T09:12:13.044Z,1017.79
2022-07-28T09:13:13.431Z,1017.80
2022-07-28T09:14:13.205Z,1017.80
2022-07-28T09:15:12.976Z,1017.78
2022-07-28T09:16:13.003Z,1017.70
2022-07-28T09:17:12.946Z,1017.73
2022-07-28T09:18:12.893Z,1017.73
2022-07-28T09:19:12.873Z,1017.73
2022-07-28T09:20:12.874Z,1017.75
2022-07-28T09:21:12.769Z,1017.76
2022-07-28T09:22:12.748Z,1017.76
2022-07-28T09:23:41.798Z,1017.79
2022-07-28T09:24:12.970Z,1017.79
2022-07-28T09:25:12.689Z,1017.74
2022-07-28T09:26:12.985Z,1017.78
2022-07-28T09:27:12.627Z,1017.79
2022-07-28T09:28:12.596Z,1017.78
2022-07-28T09:29:12.650Z,1017.75
2022-07-28T09:30:12.574Z,1017.79
2022-07-28T09:31:12.555Z,1017.76
2022-07-28T09:32:12.500Z,1017.73
2022-07-28T09:33:12.480Z,1017.73
2022-07-28T09:34:12.900Z,1017.75
2022-07-28T09:35:12.518Z,1017.75
2022-07-28T09:36:12.466Z,1017.76
2022-07-28T09:37:12.385Z,1017.75
2022-07-28T09:38:12.367Z,1017.75
2022-07-28T09:39:12.333Z,1017.75
2022-07-28T09:40:12.313Z,1017.71
2022-07-28T09:41:12.361Z,1017.76
2022-07-28T09:42:12.263Z,1017.75
2022-07-28T09:43:12.235Z,1017.74
2022-07-28T09:44:12.504Z,1017.72
2022-07-28T09:45:23.041Z,1017.72
2022-07-28T09:46:12.385Z,1017.73
2022-07-28T09:47:12.553Z,1017.74
2022-07-28T09:48:12.253Z,1017.73
2022-07-28T09:49:12.216Z,1017.71
2022-07-28T09:50:12.071Z,1017.70
2022-07-28T09:51:15.258Z,1017.72
2022-07-28T09:52:12.109Z,1017.74
2022-07-28T09:53:11.996Z,1017.75
2022-07-28T09:54:12.341Z,1017.74
2022-07-28T09:55:11.944Z,1017.72
2022-07-28T09:56:11.942Z,1017.65
2022-07-28T09:57:11.945Z,1017.67
2022-07-28T09:58:11.926Z,1017.64
2022-07-28T09:59:12.853Z,1017.63
2022-07-28T10:00:11.821Z,1017.60
2022-07-28T10:01:12.349Z,1017.64
2022-07-28T10:02:11.910Z,1017.63
2022-07-28T10:03:11.814Z,1017.64
2022-07-28T10:04:11.737Z,1017.61
2022-07-28T10:05:11.716Z,1017.58
2022-07-28T10:06:11.678Z,1017.57
2022-07-28T10:07:11.697Z,1017.58
2022-07-28T10:08:11.835Z,1017.56
2022-07-28T10:09:11.701Z,1017.57
2022-07-28T10:10:11.572Z,1017.50
2022-07-28T10:11:11.554Z,1017.56
2022-07-28T10:12:11.519Z,1017.60
2022-07-28T10:13:11.495Z,1017.57
2022-07-28T10:14:11.644Z,1017.56
2022-07-28T10:15:11.535Z,1017.54
2022-07-28T10:16:11.467Z,1017.53
2022-07-28T10:17:11.398Z,1017.53
2022-07-28T10:18:11.414Z,1017.53
2022-07-28T10:19:11.390Z,1017.49
2022-07-28T10:20:11.320Z,1017.46
2022-07-28T10:21:11.376Z,1017.39
2022-07-28T10:22:11.286Z,1017.42
2022-07-28T10:23:11.262Z,1017.45
2022-07-28T10:24:11.438Z,1017.46
2022-07-28T10:25:11.202Z,1017.42
2022-07-28T10:26:12.964Z,1017.42
2022-07-28T10:27:11.363Z,1017.43
2022-07-28T10:28:11.129Z,1017.43
2022-07-28T10:29:11.134Z,1017.42
2022-07-28T10:30:11.095Z,1017.49
2022-07-28T10:31:11.181Z,1017.48
2022-07-28T10:32:11.035Z,1017.46
2022-07-28T10:33:11.201Z,1017.44
2022-07-28T10:34:16.009Z,1017.45
2022-07-28T10:35:10.967Z,1017.48
2022-07-28T10:36:10.945Z,1017.45
2022-07-28T10:37:10.943Z,1017.40
2022-07-28T10:38:10.889Z,1017.43
2022-07-28T10:39:11.041Z,1017.46
2022-07-28T10:40:11.120Z,1017.44
2022-07-28T10:41:10.825Z,1017.42
2022-07-28T10:42:10.781Z,1017.43
2022-07-28T10:43:10.837Z,1017.38
2022-07-28T10:44:10.730Z,1017.41
2022-07-28T10:45:10.774Z,1017.42
2022-07-28T10:46:15.604Z,1017.44
2022-07-28T10:47:17.883Z,1017.42
2022-07-28T10:48:10.845Z,1017.40
2022-07-28T10:49:10.648Z,1017.41
2022-07-28T10:50:10.578Z,1017.37
2022-07-28T10:51:10.624Z,1017.37
2022-07-28T10:52:30.457Z,1017.37
2022-07-28T10:53:10.514Z,1017.40
2022-07-28T10:54:10.511Z,1017.43
2022-07-28T10:55:10.473Z,1017.45
2022-07-28T10:56:10.428Z,1017.43
2022-07-28T10:57:10.589Z,1017.40
2022-07-28T10:58:11.116Z,1017.39
2022-07-28T10:59:10.351Z,1017.44
2022-07-28T11:00:15.540Z,1017.46
2022-07-28T11:01:17.059Z,1017.43
2022-07-28T11:02:10.371Z,1017.45
2022-07-28T11:03:13.916Z,1017.43
2022-07-28T11:04:10.226Z,1017.46
2022-07-28T11:05:10.192Z,1017.42
2022-07-28T11:06:10.173Z,1017.41
2022-07-28T11:07:10.142Z,1017.41
2022-07-28T11:08:10.113Z,1017.41
2022-07-28T11:09:10.318Z,1017.41
2022-07-28T11:10:10.081Z,1017.37
2022-07-28T11:11:10.049Z,1017.40
2022-07-28T11:12:10.183Z,1017.37
2022-07-28T11:13:14.398Z,1017.34
2022-07-28T11:14:09.963Z,1017.33
2022-07-28T11:15:18.300Z,1017.36
2022-07-28T11:16:09.915Z,1017.34
2022-07-28T11:17:10.167Z,1017.34
2022-07-28T11:18:09.862Z,1017.34
2022-07-28T11:19:40.598Z,1017.31
2022-07-28T11:20:27.311Z,1017.33
2022-07-28T11:21:09.828Z,1017.31
2022-07-28T11:22:09.757Z,1017.27
2022-07-28T11:23:09.731Z,1017.25
2022-07-28T11:24:09.710Z,1017.32
2022-07-28T11:25:21.000Z,1017.22
2022-07-28T11:26:09.750Z,1017.17
2022-07-28T11:27:09.635Z,1017.24
2022-07-28T11:28:09.612Z,1017.20
2022-07-28T11:29:09.581Z,1017.23
2022-07-28T11:30:09.552Z,1017.22
2022-07-28T11:31:09.657Z,1017.22
2022-07-28T11:32:09.557Z,1017.20
2022-07-28T11:33:09.537Z,1017.22
2022-07-28T11:34:09.453Z,1017.18
2022-07-28T11:35:09.436Z,1017.25
2022-07-28T11:36:09.398Z,1017.19
2022-07-28T11:37:09.455Z,1017.19
2022-07-28T11:38:09.356Z,1017.18
2022-07-28T11:39:09.364Z,1017.13
2022-07-28T11:40:09.302Z,1017.16
2022-07-28T11:41:09.267Z,1017.16
2022-07-28T11:42:09.308Z,1017.20
2022-07-28T11:43:09.349Z,1017.19
2022-07-28T11:44:09.192Z,1017.11
2022-07-28T11:45:09.165Z,1017.20
2022-07-28T11:46:11.435Z,1017.17
2022-07-28T11:47:09.118Z,1017.17
2022-07-28T11:48:09.143Z,1017.13
2022-07-28T11:49:14.886Z,1017.15
2022-07-28T11:50:09.034Z,1017.10
2022-07-28T11:51:09.038Z,1017.08
2022-07-28T11:52:08.987Z,1017.13
2022-07-28T11:53:09.007Z,1017.16
2022-07-28T11:54:08.935Z,1017.12
2022-07-28T11:55:08.909Z,1017.08
2022-07-28T11:56:08.984Z,1017.06
2022-07-28T11:57:08.860Z,1017.09
2022-07-28T11:58:08.886Z,1017.04
2022-07-28T11:59:08.800Z,1017.05
2022-07-28T12:00:08.780Z,1017.05
2022-07-28T12:01:08.749Z,1017.01
2022-07-28T12:02:08.777Z,1016.98
2022-07-28T12:03:08.754Z,1016.99
2022-07-28T12:04:10.433Z,1017.01
2022-07-28T12:05:08.732Z,1016.96